createdAt,value
2022-11-17T00:00:43.008Z,6.55
2022-11-17T00:03:17.706Z,6.43
2022-11-17T00:05:45.145Z,6.07
2022-11-17T00:08:12.450Z,7.07
2022-11-17T00:10:39.553Z,6.18
2022-11-17T00:13:25.026Z,6.55
2022-11-17T00:15:52.087Z,5.72
2022-11-17T00:18:37.576Z,5.35
2022-11-17T00:21:21.653Z,4.97
2022-11-17T00:23:50.383Z,4.45
2022-11-17T00:26:21.195Z,5.65
2022-11-17T00:28:55.810Z,3.45
2022-11-17T00:31:44.051Z,6.75
2022-11-17T00:34:18.932Z,4.38
2022-11-17T00:36:52.300Z,4.72
2022-11-17T00:39:21.961Z,4.88
2022-11-17T00:41:49.188Z,3.22
2022-11-17T00:44:16.829Z,4.38
2022-11-17T00:46:44.115Z,4.68
2022-11-17T00:49:12.361Z,4.45
2022-11-17T00:51:42.373Z,7.65
2022-11-17T00:54:12.962Z,3.50
2022-11-17T00:56:40.419Z,5.88
2022-11-17T00:59:07.469Z,2.88
2022-11-17T01:01:34.904Z,2.70
2022-11-17T01:04:05.699Z,3.75
2022-11-17T01:06:53.022Z,4.05
2022-11-17T01:09:23.571Z,2.90
2022-11-17T01:11:53.017Z,3.53
2022-11-17T01:14:29.180Z,3.40
2022-11-17T01:16:56.550Z,3.80
2022-11-17T01:19:24.652Z,4.13
2022-11-17T01:21:51.730Z,3.10
2022-11-17T01:24:19.053Z,3.33
2022-11-17T01:26:46.886Z,5.68
2022-11-17T01:29:18.949Z,4.40
2022-11-17T01:31:51.390Z,3.83
2022-11-17T01:34:19.468Z,5.10
2022-11-17T01:37:05.487Z,3.83
2022-11-17T01:39:32.733Z,3.58
2022-11-17T01:42:11.858Z,5.35
2022-11-17T01:44:55.536Z,8.27
2022-11-17T01:47:25.424Z,6.00
2022-11-17T01:50:01.041Z,4.43
2022-11-17T01:52:31.721Z,4.63
2022-11-17T01:55:02.997Z,5.63
2022-11-17T01:57:59.996Z,7.63
2022-11-17T02:00:28.274Z,5.65
2022-11-17T02:02:56.022Z,13.18
2022-11-17T02:05:30.857Z,3.42
2022-11-17T02:08:02.068Z,4.25
2022-11-17T02:10:31.632Z,3.88
2022-11-17T02:13:01.534Z,3.28
2022-11-17T02:15:31.929Z,4.57
2022-11-17T02:18:00.440Z,4.53
2022-11-17T02:21:02.557Z,4.03
2022-11-17T02:23:57.213Z,3.17
2022-11-17T02:26:58.823Z,3.17
2022-11-17T02:29:48.278Z,2.88
2022-11-17T02:32:34.183Z,2.88
2022-11-17T02:35:13.120Z,4.45
2022-11-17T02:38:01.435Z,2.72
2022-11-17T02:41:06.851Z,2.30
2022-11-17T02:44:20.466Z,4.38
2022-11-17T02:47:01.810Z,4.25
2022-11-17T02:49:45.432Z,3.53
2022-11-17T02:52:14.497Z,2.88
2022-11-17T02:54:43.631Z,2.67
2022-11-17T02:57:40.204Z,2.75
2022-11-17T03:00:18.942Z,3.80
2022-11-17T03:03:07.202Z,6.03
2022-11-17T03:05:54.397Z,3.65
2022-11-17T03:08:47.835Z,3.83
2022-11-17T03:11:15.111Z,4.75
2022-11-17T03:13:57.509Z,3.40
2022-11-17T03:17:09.601Z,3.33
2022-11-17T03:20:02.296Z,4.20
2022-11-17T03:22:57.309Z,3.97
2022-11-17T03:25:32.262Z,6.50
2022-11-17T03:28:06.768Z,4.07
2022-11-17T03:30:40.264Z,3.38
2022-11-17T03:33:17.617Z,3.25
2022-11-17T03:36:07.129Z,3.63
2022-11-17T03:38:44.977Z,3.30
2022-11-17T03:41:15.569Z,3.55
2022-11-17T03:43:49.622Z,3.72
2022-11-17T03:46:22.131Z,4.07
2022-11-17T03:49:20.830Z,4.72
2022-11-17T03:51:47.861Z,3.85
2022-11-17T03:54:15.841Z,2.85
2022-11-17T03:57:17.061Z,3.67
2022-11-17T04:00:10.371Z,4.53
2022-11-17T04:02:40.574Z,4.13
2022-11-17T04:05:08.690Z,3.28
2022-11-17T04:07:42.369Z,3.63
2022-11-17T04:10:13.630Z,3.22
2022-11-17T04:13:01.625Z,3.37
2022-11-17T04:15:47.921Z,3.40
2022-11-17T04:18:15.531Z,3.88
2022-11-17T04:20:43.312Z,4.55
2022-11-17T04:23:14.373Z,4.60
2022-11-17T04:26:04.840Z,3.33
2022-11-17T04:28:37.222Z,2.85
2022-11-17T04:31:29.234Z,4.65
2022-11-17T04:33:58.542Z,4.07
2022-11-17T04:36:29.453Z,3.97
2022-11-17T04:38:59.457Z,4.38
2022-11-17T04:41:47.435Z,5.47
2022-11-17T04:44:17.526Z,7.97
2022-11-17T04:46:48.719Z,4.43
2022-11-17T04:49:17.876Z,5.38
2022-11-17T04:51:45.513Z,5.43
2022-11-17T04:54:16.766Z,6.40
2022-11-17T04:56:44.410Z,6.90
2022-11-17T04:59:11.699Z,6.93
2022-11-17T05:01:39.204Z,8.43
2022-11-17T05:04:12.669Z,7.60
2022-11-17T05:06:45.076Z,7.97
2022-11-17T05:09:15.838Z,7.53
2022-11-17T05:12:02.222Z,4.43
2022-11-17T05:14:29.744Z,5.72
2022-11-17T05:17:10.532Z,5.15
2022-11-17T05:19:47.217Z,5.03
2022-11-17T05:22:41.759Z,4.28
2022-11-17T05:25:10.008Z,6.18
2022-11-17T05:27:37.343Z,4.78
2022-11-17T05:30:07.572Z,6.82
2022-11-17T05:32:34.781Z,5.57
2022-11-17T05:35:04.675Z,7.32
2022-11-17T05:37:31.657Z,5.85
2022-11-17T05:39:58.675Z,5.75
2022-11-17T05:42:28.145Z,8.57
2022-11-17T05:44:55.357Z,9.98
2022-11-17T05:47:22.404Z,8.52
2022-11-17T05:49:49.387Z,8.10
2022-11-17T05:52:16.438Z,7.07
2022-11-17T05:54:43.475Z,7.65
2022-11-17T05:57:16.936Z,6.30
2022-11-17T05:59:56.282Z,5.05
2022-11-17T06:02:30.647Z,5.38
2022-11-17T06:04:57.613Z,6.35
2022-11-17T06:07:24.839Z,8.20
2022-11-17T06:09:53.391Z,6.30
2022-11-17T06:12:20.801Z,5.93
2022-11-17T06:14:47.917Z,6.85
2022-11-17T06:17:28.213Z,7.68
2022-11-17T06:20:08.757Z,6.07
2022-11-17T06:22:36.537Z,7.72
2022-11-17T06:25:05.910Z,9.82
2022-11-17T06:27:34.016Z,8.70
2022-11-17T06:30:06.730Z,7.95
2022-11-17T06:32:37.276Z,9.15
2022-11-17T06:35:10.690Z,10.35
2022-11-17T06:37:37.710Z,7.30
2022-11-17T06:40:05.753Z,5.72
2022-11-17T06:42:51.037Z,10.95
2022-11-17T06:45:18.313Z,9.65
2022-11-17T06:47:54.305Z,6.28
2022-11-17T06:50:23.392Z,10.32
2022-11-17T06:52:56.031Z,13.70
2022-11-17T06:55:23.116Z,16.60
2022-11-17T06:57:53.363Z,8.20
2022-11-17T07:00:21.337Z,6.07
2022-11-17T07:02:48.435Z,11.38
2022-11-17T07:05:18.072Z,6.63
2022-11-17T07:07:45.194Z,8.13
2022-11-17T07:10:14.574Z,11.57
2022-11-17T07:12:41.644Z,10.93
2022-11-17T07:15:09.355Z,9.05
2022-11-17T07:17:36.360Z,7.75
2022-11-17T07:20:04.242Z,7.22
2022-11-17T07:22:33.777Z,8.32
2022-11-17T07:25:00.739Z,9.27
2022-11-17T07:27:27.910Z,7.00
2022-11-17T07:29:54.965Z,6.55
2022-11-17T07:32:22.135Z,6.10
2022-11-17T07:34:49.530Z,6.28
2022-11-17T07:37:17.208Z,6.97
2022-11-17T07:39:44.351Z,6.95
2022-11-17T07:42:11.378Z,6.13
2022-11-17T07:44:38.445Z,5.03
2022-11-17T07:47:05.699Z,15.00
2022-11-17T07:49:32.836Z,12.10
2022-11-17T07:52:02.386Z,9.68
2022-11-17T07:54:29.535Z,10.98
2022-11-17T07:56:56.620Z,8.90
2022-11-17T07:59:23.774Z,18.27
2022-11-17T08:01:50.822Z,12.23
2022-11-17T08:04:20.698Z,19.73
2022-11-17T08:06:47.772Z,15.63
2022-11-17T08:09:16.286Z,8.98
2022-11-17T08:11:45.780Z,12.27
2022-11-17T08:14:12.880Z,10.85
2022-11-17T08:16:39.948Z,15.70
2022-11-17T08:19:12.126Z,10.50
2022-11-17T08:21:40.124Z,8.27
2022-11-17T08:24:09.726Z,9.40
2022-11-17T08:26:36.989Z,9.07
2022-11-17T08:29:04.471Z,14.63
2022-11-17T08:31:31.563Z,11.13
2022-11-17T08:33:58.537Z,11.95
2022-11-17T08:36:25.547Z,13.52
2022-11-17T08:38:52.583Z,12.40
2022-11-17T08:41:19.993Z,13.50
2022-11-17T08:43:47.139Z,15.25
2022-11-17T08:46:17.135Z,13.40
2022-11-17T08:48:52.254Z,10.32
2022-11-17T08:51:22.759Z,15.15
2022-11-17T08:53:52.228Z,12.13
2022-11-17T08:56:19.402Z,15.75
2022-11-17T08:58:46.570Z,12.98
2022-11-17T09:01:16.071Z,11.95
2022-11-17T09:03:45.983Z,13.68
2022-11-17T09:06:15.892Z,10.45
2022-11-17T09:08:46.231Z,14.32
2022-11-17T09:11:14.618Z,11.15
2022-11-17T09:13:42.284Z,11.00
2022-11-17T09:16:11.761Z,11.18
2022-11-17T09:18:39.808Z,7.65
2022-11-17T09:21:15.303Z,12.45
2022-11-17T09:23:42.958Z,9.02
2022-11-17T09:26:13.254Z,10.13
2022-11-17T09:28:43.226Z,8.48
2022-11-17T09:31:19.843Z,10.60
2022-11-17T09:33:47.141Z,16.88
2022-11-17T09:36:16.267Z,14.40
2022-11-17T09:38:47.179Z,13.07
2022-11-17T09:41:43.554Z,16.45
2022-11-17T09:44:32.067Z,10.52
2022-11-17T09:47:38.553Z,13.75
2022-11-17T09:50:27.231Z,9.57
2022-11-17T09:53:23.897Z,7.07
2022-11-17T09:56:13.560Z,7.07
2022-11-17T09:58:55.332Z,9.07
2022-11-17T10:01:23.278Z,20.30
2022-11-17T10:03:51.377Z,14.02
2022-11-17T10:06:25.389Z,15.93
2022-11-17T10:09:10.293Z,11.45
2022-11-17T10:11:41.485Z,10.52
2022-11-17T10:14:08.370Z,9.18
2022-11-17T10:16:51.012Z,10.07
2022-11-17T10:19:25.505Z,14.90
2022-11-17T10:22:20.697Z,18.02
2022-11-17T10:24:55.039Z,12.73
2022-11-17T10:27:34.281Z,10.00
2022-11-17T10:30:24.486Z,13.00
2022-11-17T10:33:00.949Z,7.47
2022-11-17T10:35:35.804Z,9.07
2022-11-17T10:38:20.940Z,11.68
2022-11-17T10:40:52.966Z,11.80
2022-11-17T10:43:30.931Z,12.10
2022-11-17T10:46:12.577Z,11.82
2022-11-17T10:48:53.420Z,8.60
2022-11-17T10:51:26.972Z,11.75
2022-11-17T10:54:21.015Z,11.13
2022-11-17T10:56:57.559Z,11.57
2022-11-17T11:00:05.301Z,12.80
2022-11-17T11:02:40.254Z,12.38
2022-11-17T11:05:08.898Z,8.70
2022-11-17T11:07:36.979Z,16.40
2022-11-17T11:10:31.895Z,15.80
2022-11-17T11:13:29.571Z,12.30
2022-11-17T11:15:56.661Z,9.27
2022-11-17T11:18:23.864Z,13.15
2022-11-17T11:21:02.702Z,9.35
2022-11-17T11:23:54.636Z,13.55
2022-11-17T11:27:01.680Z,10.90
2022-11-17T11:29:57.848Z,15.45
2022-11-17T11:33:07.462Z,12.25
2022-11-17T11:36:15.294Z,12.98
2022-11-17T11:38:51.395Z,10.10
2022-11-17T11:42:06.402Z,10.82
2022-11-17T11:44:53.004Z,8.63
2022-11-17T11:47:38.046Z,9.13
2022-11-17T11:50:27.267Z,9.70
2022-11-17T11:53:23.634Z,9.30
2022-11-17T11:56:06.084Z,11.82
2022-11-17T12:01:01.104Z,12.50
2022-11-17T12:03:46.466Z,12.98
2022-11-17T12:06:35.847Z,12.52
2022-11-17T12:09:19.223Z,8.70
2022-11-17T12:12:02.676Z,7.40
2022-11-17T12:14:36.432Z,9.40
2022-11-17T12:17:26.275Z,10.48
2022-11-17T12:20:07.494Z,16.30
2022-11-17T12:22:37.429Z,9.63
2022-11-17T12:25:29.131Z,10.13
2022-11-17T12:27:56.252Z,21.13
2022-11-17T12:30:36.745Z,8.40
2022-11-17T12:33:08.627Z,8.63
2022-11-17T12:35:37.249Z,10.48
2022-11-17T12:38:20.068Z,8.65
2022-11-17T12:40:51.644Z,11.52
2022-11-17T12:43:29.918Z,8.32
2022-11-17T12:46:03.619Z,12.30
2022-11-17T12:48:34.808Z,21.67
2022-11-17T12:51:29.403Z,14.25
2022-11-17T12:54:21.074Z,12.32
2022-11-17T12:56:51.912Z,13.70
2022-11-17T13:00:10.776Z,11.98
2022-11-17T13:03:22.273Z,10.60
2022-11-17T13:09:12.380Z,9.25
2022-11-17T13:11:41.858Z,15.40
2022-11-17T13:14:16.726Z,11.10
2022-11-17T13:16:50.851Z,13.77
2022-11-17T13:19:41.454Z,8.52
2022-11-17T13:22:11.455Z,9.98
2022-11-17T13:24:47.412Z,11.25
2022-11-17T13:27:32.852Z,12.25
2022-11-17T13:30:21.716Z,11.95
2022-11-17T13:32:49.590Z,17.08
2022-11-17T13:35:29.861Z,19.42
2022-11-17T13:38:12.208Z,15.55
2022-11-17T13:43:17.313Z,11.40
2022-11-17T13:45:45.822Z,12.30
2022-11-17T13:48:35.588Z,14.73
2022-11-17T13:51:20.762Z,17.35
2022-11-17T13:53:59.197Z,16.05
2022-11-17T13:56:36.715Z,12.43
2022-11-17T13:59:26.175Z,16.65
2022-11-17T14:02:20.862Z,10.75
2022-11-17T14:05:15.088Z,15.60
2022-11-17T14:07:44.441Z,18.45
2022-11-17T14:10:15.222Z,16.80
2022-11-17T14:12:45.195Z,14.07
2022-11-17T14:15:27.506Z,21.85
2022-11-17T14:18:00.163Z,17.67
2022-11-17T14:20:35.895Z,17.35
2022-11-17T14:23:02.934Z,24.02
2022-11-17T14:25:39.401Z,13.02
2022-11-17T14:28:19.250Z,19.38
2022-11-17T14:30:52.312Z,21.23
2022-11-17T14:33:20.699Z,19.40
2022-11-17T14:35:55.026Z,18.35
2022-11-17T14:38:22.455Z,24.92
2022-11-17T14:40:52.275Z,25.88
2022-11-17T14:43:21.116Z,16.60
2022-11-17T14:45:49.781Z,13.32
2022-11-17T14:48:20.337Z,24.55
2022-11-17T14:50:48.391Z,19.08
2022-11-17T14:53:17.549Z,25.38
2022-11-17T14:55:47.507Z,14.95
2022-11-17T14:58:15.159Z,14.38
2022-11-17T15:00:44.657Z,19.50
2022-11-17T15:03:11.805Z,15.55
2022-11-17T15:05:46.195Z,13.20
2022-11-17T15:08:18.179Z,15.73
2022-11-17T15:10:45.957Z,16.42
2022-11-17T15:13:13.067Z,18.23
2022-11-17T15:15:40.175Z,22.55
2022-11-17T15:18:12.843Z,29.00
2022-11-17T15:20:39.902Z,29.58
2022-11-17T15:23:06.916Z,24.08
2022-11-17T15:25:33.945Z,23.65
2022-11-17T15:28:01.024Z,19.13
2022-11-17T15:30:28.278Z,22.15
2022-11-17T15:32:55.347Z,20.67
2022-11-17T15:35:22.332Z,20.38
2022-11-17T15:37:49.395Z,21.20
2022-11-17T15:40:19.572Z,18.13
2022-11-17T15:42:46.785Z,16.58
2022-11-17T15:45:13.962Z,13.50
2022-11-17T15:47:40.981Z,18.48
2022-11-17T15:50:08.813Z,17.50
2022-11-17T15:53:02.329Z,22.13
2022-11-17T15:55:22.842Z,21.92
2022-11-17T15:57:54.669Z,22.10
2022-11-17T16:00:21.946Z,21.95
2022-11-17T16:02:55.804Z,19.75
2022-11-17T16:05:25.585Z,34.35
2022-11-17T16:07:52.688Z,85.90
2022-11-17T16:10:19.722Z,93.75
2022-11-17T16:12:49.534Z,191.73
2022-11-17T16:15:19.601Z,106.82
2022-11-17T16:17:46.603Z,107.10
2022-11-17T16:20:14.206Z,60.53
2022-11-17T16:22:41.218Z,58.53
2022-11-17T16:25:10.678Z,63.40
2022-11-17T16:27:37.743Z,56.28
2022-11-17T16:30:05.241Z,47.65
2022-11-17T16:32:32.386Z,40.45
2022-11-17T16:35:01.482Z,47.83
2022-11-17T16:37:28.542Z,45.85
2022-11-17T16:39:56.408Z,46.38
2022-11-17T16:42:23.417Z,55.10
2022-11-17T16:44:50.603Z,54.90
2022-11-17T16:47:17.606Z,63.50
2022-11-17T16:49:47.851Z,57.70
2022-11-17T16:52:17.642Z,49.80
2022-11-17T16:54:44.638Z,48.70
2022-11-17T16:57:11.658Z,46.75
2022-11-17T16:59:41.315Z,47.45
2022-11-17T17:02:15.503Z,59.85
2022-11-17T17:04:42.478Z,60.45
2022-11-17T17:07:09.555Z,64.32
2022-11-17T17:09:37.868Z,58.55
2022-11-17T17:12:05.675Z,75.38
2022-11-17T17:14:32.684Z,88.65
2022-11-17T17:17:02.298Z,82.03
2022-11-17T17:19:29.579Z,75.35
2022-11-17T17:21:56.784Z,64.70
2022-11-17T17:24:23.805Z,63.53
2022-11-17T17:26:50.810Z,70.22
2022-11-17T17:29:18.283Z,71.95
2022-11-17T17:31:45.564Z,67.88
2022-11-17T17:34:13.378Z,72.15
2022-11-17T17:36:45.684Z,71.18
2022-11-17T17:39:15.680Z,72.50
2022-11-17T17:41:44.531Z,40.53
2022-11-17T17:44:18.713Z,42.67
2022-11-17T17:46:46.860Z,45.00
2022-11-17T17:49:14.644Z,51.67
2022-11-17T17:51:44.443Z,51.20
2022-11-17T17:54:21.460Z,52.13
2022-11-17T17:56:48.596Z,48.45
2022-11-17T17:59:16.821Z,55.72
2022-11-17T18:01:46.281Z,46.55
2022-11-17T18:04:16.086Z,45.97
2022-11-17T18:06:48.794Z,42.88
2022-11-17T18:11:50.821Z,51.17
2022-11-17T18:14:23.941Z,48.13
2022-11-17T18:16:54.336Z,48.80
2022-11-17T18:19:22.288Z,50.42
2022-11-17T18:21:49.504Z,65.13
2022-11-17T18:24:16.570Z,64.35
2022-11-17T18:26:43.850Z,64.03
2022-11-17T18:29:18.541Z,61.55
2022-11-17T18:31:47.539Z,84.20
2022-11-17T18:34:22.991Z,80.60
2022-11-17T18:36:58.073Z,81.72
2022-11-17T18:39:25.320Z,88.78
2022-11-17T18:41:52.376Z,70.75
2022-11-17T18:44:19.803Z,90.47
2022-11-17T18:46:49.435Z,109.25
2022-11-17T18:49:16.929Z,103.60
2022-11-17T18:51:46.340Z,103.05
2022-11-17T18:54:16.026Z,95.57
2022-11-17T18:56:46.905Z,75.18
2022-11-17T18:59:14.347Z,72.70
2022-11-17T19:01:43.326Z,68.65
2022-11-17T19:04:13.997Z,71.05
2022-11-17T19:06:41.335Z,67.70
2022-11-17T19:09:08.597Z,65.50
2022-11-17T19:11:35.849Z,67.30
2022-11-17T19:14:05.266Z,62.05
2022-11-17T19:16:33.432Z,58.03
2022-11-17T19:19:00.710Z,53.10
2022-11-17T19:21:36.006Z,53.58
2022-11-17T19:24:07.818Z,53.03
2022-11-17T19:26:36.255Z,53.42
2022-11-17T19:29:16.140Z,50.83
2022-11-17T19:31:47.506Z,53.10
2022-11-17T19:34:16.065Z,60.83
2022-11-17T19:36:45.350Z,61.72
2022-11-17T19:39:14.197Z,59.45
2022-11-17T19:41:42.219Z,73.47
2022-11-17T19:44:10.002Z,67.70
2022-11-17T19:46:37.582Z,64.10
2022-11-17T19:49:06.294Z,59.95
2022-11-17T19:51:41.975Z,58.65
2022-11-17T19:54:11.838Z,60.20
2022-11-17T19:56:38.978Z,58.58
2022-11-17T19:59:09.701Z,62.60
2022-11-17T20:01:39.668Z,60.20
2022-11-17T20:04:07.426Z,67.85
2022-11-17T20:06:38.569Z,63.00
2022-11-17T20:09:14.981Z,63.53
2022-11-17T20:11:42.907Z,65.35
2022-11-17T20:14:10.919Z,75.78
2022-11-17T20:16:40.490Z,72.60
2022-11-17T20:19:08.696Z,69.65
2022-11-17T20:21:35.818Z,73.70
2022-11-17T20:24:03.377Z,86.38
2022-11-17T20:26:33.922Z,101.25
2022-11-17T20:29:03.256Z,94.60
2022-11-17T20:31:33.629Z,90.82
2022-11-17T20:34:03.782Z,96.13
2022-11-17T20:36:34.015Z,86.55
2022-11-17T20:39:05.602Z,88.40
2022-11-17T20:41:33.012Z,90.00
2022-11-17T20:44:26.721Z,84.10
2022-11-17T20:46:58.088Z,69.55
2022-11-17T20:49:27.940Z,75.25
2022-11-17T20:52:03.225Z,74.82
2022-11-17T20:54:36.276Z,77.15
2022-11-17T20:57:10.048Z,94.78
2022-11-17T20:59:37.516Z,89.10
2022-11-17T21:02:04.631Z,91.60
2022-11-17T21:04:32.010Z,95.47
2022-11-17T21:07:01.968Z,94.85
2022-11-17T21:09:29.090Z,104.30
2022-11-17T21:11:59.394Z,105.32
2022-11-17T21:14:27.665Z,107.97
2022-11-17T21:16:57.626Z,92.90
2022-11-17T21:19:24.770Z,99.65
2022-11-17T21:21:53.445Z,87.63
2022-11-17T21:24:22.074Z,77.22
2022-11-17T21:26:51.507Z,76.63
2022-11-17T21:29:18.687Z,64.65
2022-11-17T21:31:46.408Z,71.93
2022-11-17T21:34:17.408Z,63.15
2022-11-17T21:36:44.855Z,55.90
2022-11-17T21:39:18.260Z,64.85
2022-11-17T21:41:48.357Z,57.13
2022-11-17T21:44:15.523Z,59.03
2022-11-17T21:46:42.584Z,65.70
2022-11-17T21:49:09.724Z,69.40
2022-11-17T21:51:38.691Z,61.83
2022-11-17T21:54:09.795Z,64.65
2022-11-17T21:56:37.237Z,62.85
2022-11-17T21:59:10.221Z,61.05
2022-11-17T22:01:37.804Z,57.35
2022-11-17T22:04:05.058Z,58.63
2022-11-17T22:06:34.565Z,62.42
2022-11-17T22:09:01.609Z,57.70
2022-11-17T22:11:38.200Z,64.13
2022-11-17T22:14:19.280Z,60.70
2022-11-17T22:16:47.686Z,58.88
2022-11-17T22:19:17.257Z,66.50
2022-11-17T22:21:47.118Z,62.30
2022-11-17T22:24:14.299Z,67.85
2022-11-17T22:26:44.233Z,68.20
2022-11-17T22:29:21.263Z,67.35
2022-11-17T22:31:53.438Z,67.70
2022-11-17T22:34:22.976Z,73.50
2022-11-17T22:36:52.329Z,69.78
2022-11-17T22:39:19.785Z,65.65
2022-11-17T22:41:47.032Z,65.68
2022-11-17T22:44:18.239Z,70.00
2022-11-17T22:46:45.770Z,68.93
2022-11-17T22:49:13.610Z,65.90
2022-11-17T22:51:59.766Z,63.78
2022-11-17T22:54:26.890Z,67.35
2022-11-17T22:56:54.374Z,64.25
2022-11-17T22:59:24.740Z,66.30
2022-11-17T23:01:51.889Z,75.82
2022-11-17T23:04:20.917Z,66.90
2022-11-17T23:06:48.177Z,69.45
2022-11-17T23:09:16.043Z,67.70
2022-11-17T23:11:49.507Z,73.95
2022-11-17T23:14:16.995Z,67.78
2022-11-17T23:16:44.228Z,67.43
2022-11-17T23:19:14.838Z,62.53
2022-11-17T23:21:44.695Z,60.63
2022-11-17T23:24:15.015Z,65.45
2022-11-17T23:26:42.701Z,63.92
2022-11-17T23:29:10.358Z,52.83
2022-11-17T23:31:37.711Z,54.20
2022-11-17T23:34:04.940Z,52.28
2022-11-17T23:36:32.158Z,51.60
2022-11-17T23:38:59.610Z,56.88
2022-11-17T23:41:26.932Z,56.42
2022-11-17T23:43:54.923Z,49.50
2022-11-17T23:46:25.247Z,45.65
2022-11-17T23:48:53.273Z,48.20
2022-11-17T23:51:23.020Z,43.30
2022-11-17T23:53:52.792Z,43.38
2022-11-17T23:56:21.898Z,47.40
2022-11-17T23:58:51.446Z,43.25
